sensor_id;sensor_type;location;lat;lon;timestamp;pressure;altitude;pressure_sealevel;temperature;humidity
39363;BME280;25088;43.238;23.110;2022-08-06T00:00:52;96219.84;;;23.58;50.38
39363;BME280;25088;43.238;23.110;2022-08-06T00:03:18;96214.75;;;23.47;50.71
39363;BME280;25088;43.238;23.110;2022-08-06T00:05:43;96223.91;;;23.48;50.60
39363;BME280;25088;43.238;23.110;2022-08-06T00:08:09;96226.91;;;23.55;50.25
39363;BME280;25088;43.238;23.110;2022-08-06T00:10:34;96219.03;;;23.57;50.08
39363;BME280;25088;43.238;23.110;2022-08-06T00:13:00;96217.97;;;23.50;50.81
39363;BME280;25088;43.238;23.110;2022-08-06T00:15:26;96222.25;;;23.47;50.71
39363;BME280;25088;43.238;23.110;2022-08-06T00:17:52;96230.28;;;23.48;51.12
39363;BME280;25088;43.238;23.110;2022-08-06T00:20:18;96219.94;;;23.37;50.98
39363;BME280;25088;43.238;23.110;2022-08-06T00:22:43;96228.78;;;23.51;50.80
39363;BME280;25088;43.238;23.110;2022-08-06T00:25:09;96229.94;;;23.38;51.64
39363;BME280;25088;43.238;23.110;2022-08-06T00:27:39;96225.72;;;23.32;51.24
39363;BME280;25088;43.238;23.110;2022-08-06T00:30:06;96233.50;;;23.26;51.52
39363;BME280;25088;43.238;23.110;2022-08-06T00:32:32;96241.47;;;23.15;52.40
39363;BME280;25088;43.238;23.110;2022-08-06T00:34:58;96241.69;;;23.10;52.70
39363;BME280;25088;43.238;23.110;2022-08-06T00:37:23;96243.00;;;23.13;52.52
39363;BME280;25088;43.238;23.110;2022-08-06T00:39:49;96242.59;;;23.02;52.64
39363;BME280;25088;43.238;23.110;2022-08-06T00:42:15;96240.88;;;23.10;52.40
39363;BME280;25088;43.238;23.110;2022-08-06T00:44:41;96241.81;;;23.14;52.22
39363;BME280;25088;43.238;23.110;2022-08-06T00:47:06;96233.47;;;23.14;51.64
39363;BME280;25088;43.238;23.110;2022-08-06T00:49:32;96230.63;;;23.35;51.31
39363;BME280;25088;43.238;23.110;2022-08-06T00:51:57;96234.44;;;23.30;51.76
39363;BME280;25088;43.238;23.110;2022-08-06T00:54:23;96219.78;;;23.21;51.44
39363;BME280;25088;43.238;23.110;2022-08-06T00:56:48;96231.41;;;23.35;51.46
39363;BME280;25088;43.238;23.110;2022-08-06T00:59:14;96225.31;;;23.54;50.55
39363;BME280;25088;43.238;23.110;2022-08-06T01:01:40;96216.50;;;23.52;50.81
39363;BME280;25088;43.238;23.110;2022-08-06T01:04:05;96227.63;;;23.52;50.67
39363;BME280;25088;43.238;23.110;2022-08-06T01:06:31;96231.09;;;23.49;50.71
39363;BME280;25088;43.238;23.110;2022-08-06T01:08:56;96235.53;;;23.62;50.12
39363;BME280;25088;43.238;23.110;2022-08-06T01:11:22;96225.69;;;23.65;50.21
39363;BME280;25088;43.238;23.110;2022-08-06T01:13:48;96213.22;;;23.50;50.39
39363;BME280;25088;43.238;23.110;2022-08-06T01:16:25;96223.91;;;23.60;50.08
39363;BME280;25088;43.238;23.110;2022-08-06T01:24:23;96226.50;;;23.65;50.19
39363;BME280;25088;43.238;23.110;2022-08-06T01:29:39;96229.88;;;23.71;49.85
39363;BME280;25088;43.238;23.110;2022-08-06T01:32:14;96225.22;;;23.75;49.80
39363;BME280;25088;43.238;23.110;2022-08-06T01:34:52;96215.84;;;23.67;49.83
39363;BME280;25088;43.238;23.110;2022-08-06T01:37:49;96213.25;;;23.62;49.88
39363;BME280;25088;43.238;23.110;2022-08-06T01:40:27;96212.19;;;23.55;50.42
39363;BME280;25088;43.238;23.110;2022-08-06T01:42:55;96200.19;;;23.42;50.25
39363;BME280;25088;43.238;23.110;2022-08-06T01:45:26;96215.06;;;23.46;50.89
39363;BME280;25088;43.238;23.110;2022-08-06T01:47:56;96208.56;;;23.42;50.83
39363;BME280;25088;43.238;23.110;2022-08-06T01:50:28;96205.09;;;23.45;50.85
39363;BME280;25088;43.238;23.110;2022-08-06T01:52:56;96205.44;;;23.43;50.87
39363;BME280;25088;43.238;23.110;2022-08-06T01:55:24;96197.19;;;23.35;50.60
39363;BME280;25088;43.238;23.110;2022-08-06T01:57:53;96197.53;;;23.33;50.90
39363;BME280;25088;43.238;23.110;2022-08-06T02:00:20;96187.66;;;23.36;50.30
39363;BME280;25088;43.238;23.110;2022-08-06T02:02:48;96198.94;;;23.39;50.56
39363;BME280;25088;43.238;23.110;2022-08-06T02:05:17;96198.00;;;23.35;51.10
39363;BME280;25088;43.238;23.110;2022-08-06T02:07:47;96198.13;;;23.51;50.55
39363;BME280;25088;43.238;23.110;2022-08-06T02:10:14;96197.31;;;23.51;50.41
39363;BME280;25088;43.238;23.110;2022-08-06T02:12:44;96199.06;;;23.43;51.00
39363;BME280;25088;43.238;23.110;2022-08-06T02:15:15;96193.94;;;23.45;50.88
39363;BME280;25088;43.238;23.110;2022-08-06T02:17:47;96185.72;;;23.48;50.36
39363;BME280;25088;43.238;23.110;2022-08-06T02:20:16;96193.75;;;23.62;50.12
39363;BME280;25088;43.238;23.110;2022-08-06T02:22:44;96190.34;;;23.44;50.66
39363;BME280;25088;43.238;23.110;2022-08-06T02:25:12;96171.50;;;23.05;51.73
39363;BME280;25088;43.238;23.110;2022-08-06T02:27:40;96181.88;;;23.29;51.60
39363;BME280;25088;43.238;23.110;2022-08-06T02:30:06;96189.06;;;23.30;51.04
39363;BME280;25088;43.238;23.110;2022-08-06T02:32:32;96189.41;;;23.28;51.07
39363;BME280;25088;43.238;23.110;2022-08-06T02:34:58;96187.41;;;23.16;51.15
39363;BME280;25088;43.238;23.110;2022-08-06T02:37:30;96195.91;;;22.66;52.22
39363;BME280;25088;43.238;23.110;2022-08-06T02:40:00;96190.53;;;23.03;51.71
39363;BME280;25088;43.238;23.110;2022-08-06T02:42:32;96197.72;;;23.04;51.90
39363;BME280;25088;43.238;23.110;2022-08-06T02:45:12;96201.91;;;23.10;51.59
39363;BME280;25088;43.238;23.110;2022-08-06T02:48:01;96199.13;;;23.10;51.53
39363;BME280;25088;43.238;23.110;2022-08-06T02:50:33;96194.13;;;23.15;50.96
39363;BME280;25088;43.238;23.110;2022-08-06T02:53:14;96199.47;;;23.20;51.08
39363;BME280;25088;43.238;23.110;2022-08-06T02:55:44;96200.66;;;23.32;50.68
39363;BME280;25088;43.238;23.110;2022-08-06T02:58:15;96195.22;;;23.35;50.53
39363;BME280;25088;43.238;23.110;2022-08-06T03:00:42;96205.31;;;23.40;50.57
39363;BME280;25088;43.238;23.110;2022-08-06T03:03:10;96204.97;;;23.29;50.94
39363;BME280;25088;43.238;23.110;2022-08-06T03:05:41;96210.16;;;23.18;51.39
39363;BME280;25088;43.238;23.110;2022-08-06T03:08:09;96201.53;;;23.11;51.66
39363;BME280;25088;43.238;23.110;2022-08-06T03:10:36;96208.28;;;23.10;51.57
39363;BME280;25088;43.238;23.110;2022-08-06T03:13:02;96212.22;;;23.09;51.67
39363;BME280;25088;43.238;23.110;2022-08-06T03:15:32;96212.22;;;23.09;51.65
39363;BME280;25088;43.238;23.110;2022-08-06T03:17:58;96213.28;;;23.17;51.57
39363;BME280;25088;43.238;23.110;2022-08-06T03:20:26;96214.78;;;23.14;51.99
39363;BME280;25088;43.238;23.110;2022-08-06T03:22:55;96225.56;;;23.04;52.03
39363;BME280;25088;43.238;23.110;2022-08-06T03:25:22;96227.75;;;22.98;52.05
39363;BME280;25088;43.238;23.110;2022-08-06T03:27:49;96226.72;;;23.03;51.79
39363;BME280;25088;43.238;23.110;2022-08-06T03:30:17;96234.44;;;22.97;52.17
39363;BME280;25088;43.238;23.110;2022-08-06T03:32:44;96236.19;;;22.89;52.31
39363;BME280;25088;43.238;23.110;2022-08-06T03:35:11;96237.97;;;22.85;53.03
39363;BME280;25088;43.238;23.110;2022-08-06T03:37:37;96231.69;;;22.76;53.28
39363;BME280;25088;43.238;23.110;2022-08-06T03:40:05;96236.00;;;22.86;53.48
39363;BME280;25088;43.238;23.110;2022-08-06T03:42:32;96242.72;;;22.85;53.42
39363;BME280;25088;43.238;23.110;2022-08-06T03:44:58;96233.28;;;22.77;53.48
39363;BME280;25088;43.238;23.110;2022-08-06T03:47:26;96234.13;;;22.78;53.51
39363;BME280;25088;43.238;23.110;2022-08-06T03:50:15;96213.38;;;22.54;54.15
39363;BME280;25088;43.238;23.110;2022-08-06T03:52:44;96238.06;;;22.77;53.88
39363;BME280;25088;43.238;23.110;2022-08-06T03:55:16;96242.72;;;22.85;53.99
39363;BME280;25088;43.238;23.110;2022-08-06T03:57:46;96240.22;;;22.92;53.68
39363;BME280;25088;43.238;23.110;2022-08-06T04:00:14;96253.81;;;22.93;53.76
39363;BME280;25088;43.238;23.110;2022-08-06T04:02:44;96245.53;;;22.85;54.86
39363;BME280;25088;43.238;23.110;2022-08-06T04:05:11;96230.50;;;22.77;54.55
39363;BME280;25088;43.238;23.110;2022-08-06T04:07:39;96251.28;;;22.80;55.14
39363;BME280;25088;43.238;23.110;2022-08-06T04:10:05;96248.38;;;22.76;55.54
39363;BME280;25088;43.238;23.110;2022-08-06T04:12:32;96248.06;;;22.78;55.66
39363;BME280;25088;43.238;23.110;2022-08-06T04:14:59;96249.75;;;22.91;55.31
39363;BME280;25088;43.238;23.110;2022-08-06T04:17:26;96251.16;;;22.97;55.00
39363;BME280;25088;43.238;23.110;2022-08-06T04:19:52;96247.03;;;23.03;55.02
39363;BME280;25088;43.238;23.110;2022-08-06T04:22:19;96248.56;;;23.13;55.21
39363;BME280;25088;43.238;23.110;2022-08-06T04:24:46;96260.00;;;23.32;54.68
39363;BME280;25088;43.238;23.110;2022-08-06T04:27:13;96248.94;;;23.36;54.43
39363;BME280;25088;43.238;23.110;2022-08-06T04:29:40;96260.63;;;23.62;54.22
39363;BME280;25088;43.238;23.110;2022-08-06T04:32:07;96261.56;;;23.66;54.44
39363;BME280;25088;43.238;23.110;2022-08-06T04:34:33;96259.97;;;23.90;54.32
39363;BME280;25088;43.238;23.110;2022-08-06T04:37:00;96252.06;;;23.92;54.17
39363;BME280;25088;43.238;23.110;2022-08-06T04:39:27;96252.75;;;24.13;53.72
39363;BME280;25088;43.238;23.110;2022-08-06T04:41:53;96254.38;;;24.39;53.51
39363;BME280;25088;43.238;23.110;2022-08-06T04:44:20;96254.34;;;24.51;53.02
39363;BME280;25088;43.238;23.110;2022-08-06T04:46:46;96254.44;;;24.67;52.65
39363;BME280;25088;43.238;23.110;2022-08-06T04:49:18;96263.53;;;24.92;52.88
39363;BME280;25088;43.238;23.110;2022-08-06T04:51:47;96260.94;;;25.11;53.05
39363;BME280;25088;43.238;23.110;2022-08-06T04:54:14;96263.53;;;25.20;53.36
39363;BME280;25088;43.238;23.110;2022-08-06T04:56:41;96260.97;;;25.43;52.64
39363;BME280;25088;43.238;23.110;2022-08-06T04:59:07;96269.13;;;25.64;52.24
39363;BME280;25088;43.238;23.110;2022-08-06T05:01:33;96265.78;;;25.74;52.17
39363;BME280;25088;43.238;23.110;2022-08-06T05:03:58;96264.47;;;25.84;51.20
39363;BME280;25088;43.238;23.110;2022-08-06T05:09:34;96266.06;;;26.16;51.47
39363;BME280;25088;43.238;23.110;2022-08-06T05:12:01;96268.47;;;26.34;51.43
39363;BME280;25088;43.238;23.110;2022-08-06T05:14:37;96268.84;;;26.48;50.38
39363;BME280;25088;43.238;23.110;2022-08-06T05:17:06;96267.06;;;26.59;50.37
39363;BME280;25088;43.238;23.110;2022-08-06T05:19:44;96258.69;;;26.59;51.39
39363;BME280;25088;43.238;23.110;2022-08-06T05:22:13;96260.69;;;26.78;50.96
39363;BME280;25088;43.238;23.110;2022-08-06T05:24:40;96264.47;;;26.86;51.15
39363;BME280;25088;43.238;23.110;2022-08-06T05:27:06;96259.50;;;26.98;50.50
39363;BME280;25088;43.238;23.110;2022-08-06T05:29:32;96254.63;;;27.11;50.56
39363;BME280;25088;43.238;23.110;2022-08-06T05:31:59;96260.84;;;27.24;49.89
39363;BME280;25088;43.238;23.110;2022-08-06T05:34:25;96241.44;;;27.35;49.35
39363;BME280;25088;43.238;23.110;2022-08-06T05:36:50;96258.72;;;27.60;48.67
39363;BME280;25088;43.238;23.110;2022-08-06T05:39:16;96256.38;;;27.62;48.90
39363;BME280;25088;43.238;23.110;2022-08-06T05:41:41;96255.91;;;27.79;47.34
39363;BME280;25088;43.238;23.110;2022-08-06T05:44:08;96249.41;;;27.98;47.48
39363;BME280;25088;43.238;23.110;2022-08-06T05:46:52;96242.19;;;28.23;46.68
39363;BME280;25088;43.238;23.110;2022-08-06T05:49:28;96259.97;;;28.57;46.84
39363;BME280;25088;43.238;23.110;2022-08-06T05:52:29;96254.44;;;28.91;45.77
39363;BME280;25088;43.238;23.110;2022-08-06T05:55:16;96262.81;;;29.18;44.06
39363;BME280;25088;43.238;23.110;2022-08-06T05:58:03;96263.44;;;29.38;43.42
39363;BME280;25088;43.238;23.110;2022-08-06T06:00:32;96238.41;;;29.63;43.00
39363;BME280;25088;43.238;23.110;2022-08-06T06:03:00;96260.16;;;29.66;43.30
39363;BME280;25088;43.238;23.110;2022-08-06T06:05:27;96262.13;;;29.61;43.34
39363;BME280;25088;43.238;23.110;2022-08-06T06:07:53;96259.25;;;29.54;43.25
39363;BME280;25088;43.238;23.110;2022-08-06T06:10:22;96260.25;;;29.76;41.29
39363;BME280;25088;43.238;23.110;2022-08-06T06:12:48;96264.03;;;30.39;41.51
39363;BME280;25088;43.238;23.110;2022-08-06T06:15:16;96232.47;;;30.71;40.15
39363;BME280;25088;43.238;23.110;2022-08-06T06:20:25;96258.13;;;31.31;38.08
39363;BME280;25088;43.238;23.110;2022-08-06T06:23:06;96268.72;;;31.59;36.82
39363;BME280;25088;43.238;23.110;2022-08-06T06:33:45;96273.66;;;32.59;35.00
39363;BME280;25088;43.238;23.110;2022-08-06T06:36:27;96263.97;;;32.60;34.73
39363;BME280;25088;43.238;23.110;2022-08-06T06:39:04;96262.31;;;32.70;33.32
39363;BME280;25088;43.238;23.110;2022-08-06T06:41:43;96264.72;;;32.71;32.71
39363;BME280;25088;43.238;23.110;2022-08-06T06:47:01;96265.41;;;33.22;32.34
39363;BME280;25088;43.238;23.110;2022-08-06T06:49:36;96258.88;;;33.35;31.24
39363;BME280;25088;43.238;23.110;2022-08-06T06:52:35;96264.44;;;33.60;31.57
39363;BME280;25088;43.238;23.110;2022-08-06T06:55:30;96261.03;;;33.90;30.90
39363;BME280;25088;43.238;23.110;2022-08-06T06:58:35;96261.91;;;33.80;31.21
39363;BME280;25088;43.238;23.110;2022-08-06T07:01:05;96254.81;;;34.13;30.73
39363;BME280;25088;43.238;23.110;2022-08-06T07:03:33;96260.31;;;34.31;29.87
39363;BME280;25088;43.238;23.110;2022-08-06T07:06:01;96254.75;;;34.69;29.84
39363;BME280;25088;43.238;23.110;2022-08-06T07:08:28;96260.38;;;35.10;29.64
39363;BME280;25088;43.238;23.110;2022-08-06T07:10:56;96249.16;;;35.34;28.91
39363;BME280;25088;43.238;23.110;2022-08-06T07:13:23;96252.69;;;35.45;28.74
39363;BME280;25088;43.238;23.110;2022-08-06T07:15:50;96262.84;;;35.46;28.41
39363;BME280;25088;43.238;23.110;2022-08-06T07:18:17;96260.47;;;35.98;27.97
39363;BME280;25088;43.238;23.110;2022-08-06T07:20:45;96244.97;;;36.03;28.03
39363;BME280;25088;43.238;23.110;2022-08-06T07:23:11;96257.44;;;35.82;28.33
39363;BME280;25088;43.238;23.110;2022-08-06T07:25:44;96256.34;;;36.54;27.50
39363;BME280;25088;43.238;23.110;2022-08-06T07:28:11;96257.53;;;36.29;27.60
39363;BME280;25088;43.238;23.110;2022-08-06T07:30:40;96248.16;;;36.32;27.26
39363;BME280;25088;43.238;23.110;2022-08-06T07:33:06;96251.50;;;36.00;27.92
39363;BME280;25088;43.238;23.110;2022-08-06T07:35:34;96244.44;;;36.12;27.41
39363;BME280;25088;43.238;23.110;2022-08-06T07:38:02;96255.94;;;36.55;27.08
39363;BME280;25088;43.238;23.110;2022-08-06T07:40:32;96238.53;;;36.96;26.83
39363;BME280;25088;43.238;23.110;2022-08-06T07:43:06;96241.66;;;37.22;27.04
39363;BME280;25088;43.238;23.110;2022-08-06T07:45:34;96246.00;;;37.50;26.22
39363;BME280;25088;43.238;23.110;2022-08-06T07:48:05;96247.38;;;37.42;27.14
39363;BME280;25088;43.238;23.110;2022-08-06T07:50:31;96249.41;;;37.41;26.93
39363;BME280;25088;43.238;23.110;2022-08-06T07:52:58;96249.69;;;37.67;26.18
39363;BME280;25088;43.238;23.110;2022-08-06T07:55:25;96249.94;;;37.72;26.11
39363;BME280;25088;43.238;23.110;2022-08-06T07:57:56;96247.16;;;37.69;26.36
39363;BME280;25088;43.238;23.110;2022-08-06T08:00:25;96242.84;;;38.17;26.79
39363;BME280;25088;43.238;23.110;2022-08-06T08:02:52;96246.88;;;37.83;26.48
39363;BME280;25088;43.238;23.110;2022-08-06T08:05:37;96249.25;;;37.29;26.88
39363;BME280;25088;43.238;23.110;2022-08-06T08:08:23;96238.34;;;37.63;26.67
39363;BME280;25088;43.238;23.110;2022-08-06T08:10:52;96239.88;;;37.68;27.15
39363;BME280;25088;43.238;23.110;2022-08-06T08:13:21;96243.22;;;37.83;26.62
39363;BME280;25088;43.238;23.110;2022-08-06T08:15:47;96242.13;;;37.76;26.79
39363;BME280;25088;43.238;23.110;2022-08-06T08:18:13;96242.47;;;37.78;25.87
39363;BME280;25088;43.238;23.110;2022-08-06T08:20:39;96249.34;;;37.45;26.66
39363;BME280;25088;43.238;23.110;2022-08-06T08:23:09;96236.50;;;38.09;25.71
39363;BME280;25088;43.238;23.110;2022-08-06T08:25:35;96247.34;;;38.14;25.91
39363;BME280;25088;43.238;23.110;2022-08-06T08:28:00;96246.41;;;38.05;26.25
39363;BME280;25088;43.238;23.110;2022-08-06T08:30:26;96253.44;;;38.65;25.39
39363;BME280;25088;43.238;23.110;2022-08-06T08:32:51;96255.38;;;38.68;25.07
39363;BME280;25088;43.238;23.110;2022-08-06T08:35:17;96245.81;;;39.37;24.63
39363;BME280;25088;43.238;23.110;2022-08-06T08:37:42;96251.31;;;39.15;24.50
39363;BME280;25088;43.238;23.110;2022-08-06T08:40:08;96250.16;;;39.12;24.49
39363;BME280;25088;43.238;23.110;2022-08-06T08:42:48;96256.75;;;39.67;23.85
39363;BME280;25088;43.238;23.110;2022-08-06T08:45:18;96254.16;;;40.37;23.58
39363;BME280;25088;43.238;23.110;2022-08-06T08:47:47;96249.81;;;39.81;23.65
39363;BME280;25088;43.238;23.110;2022-08-06T08:50:16;96253.72;;;40.13;23.87
39363;BME280;25088;43.238;23.110;2022-08-06T08:52:43;96250.78;;;40.76;23.00
39363;BME280;25088;43.238;23.110;2022-08-06T08:55:11;96254.16;;;40.37;23.62
39363;BME280;25088;43.238;23.110;2022-08-06T08:57:39;96228.13;;;40.09;23.94
39363;BME280;25088;43.238;23.110;2022-08-06T09:00:06;96248.00;;;40.25;23.46
39363;BME280;25088;43.238;23.110;2022-08-06T09:02:33;96239.50;;;40.47;23.08
39363;BME280;25088;43.238;23.110;2022-08-06T09:04:59;96248.06;;;40.47;23.22
39363;BME280;25088;43.238;23.110;2022-08-06T09:07:26;96253.16;;;40.18;23.19
39363;BME280;25088;43.238;23.110;2022-08-06T09:09:53;96246.94;;;40.45;23.11
39363;BME280;25088;43.238;23.110;2022-08-06T09:12:19;96248.41;;;41.10;22.63
39363;BME280;25088;43.238;23.110;2022-08-06T09:14:46;96238.28;;;41.62;21.91
39363;BME280;25088;43.238;23.110;2022-08-06T09:17:12;96249.34;;;41.72;21.87
39363;BME280;25088;43.238;23.110;2022-08-06T09:19:37;96233.22;;;41.66;21.85
39363;BME280;25088;43.238;23.110;2022-08-06T09:22:03;96245.03;;;41.46;22.02
39363;BME280;25088;43.238;23.110;2022-08-06T09:24:29;96237.03;;;41.85;21.86
39363;BME280;25088;43.238;23.110;2022-08-06T09:27:08;96242.56;;;41.35;21.99
39363;BME280;25088;43.238;23.110;2022-08-06T09:29:36;96250.47;;;41.31;21.48
39363;BME280;25088;43.238;23.110;2022-08-06T09:32:03;96244.84;;;41.40;21.46
39363;BME280;25088;43.238;23.110;2022-08-06T09:34:37;96229.97;;;42.07;21.35
39363;BME280;25088;43.238;23.110;2022-08-06T09:37:03;96231.06;;;42.10;21.04
39363;BME280;25088;43.238;23.110;2022-08-06T09:39:35;96236.94;;;42.38;20.84
39363;BME280;25088;43.238;23.110;2022-08-06T09:42:03;96244.97;;;42.61;20.08
39363;BME280;25088;43.238;23.110;2022-08-06T09:44:28;96228.56;;;42.71;20.48
39363;BME280;25088;43.238;23.110;2022-08-06T09:46:54;96241.38;;;42.97;20.42
39363;BME280;25088;43.238;23.110;2022-08-06T09:49:20;96244.25;;;41.98;20.47
39363;BME280;25088;43.238;23.110;2022-08-06T09:51:46;96239.94;;;42.25;20.82
39363;BME280;25088;43.238;23.110;2022-08-06T09:54:13;96227.91;;;42.57;21.10
39363;BME280;25088;43.238;23.110;2022-08-06T09:56:44;96234.97;;;42.75;20.80
39363;BME280;25088;43.238;23.110;2022-08-06T09:59:12;96233.25;;;43.05;20.11
39363;BME280;25088;43.238;23.110;2022-08-06T10:01:41;96246.53;;;43.02;19.80
39363;BME280;25088;43.238;23.110;2022-08-06T10:04:12;96234.53;;;42.36;20.51
39363;BME280;25088;43.238;23.110;2022-08-06T10:06:59;96239.38;;;42.17;21.13
39363;BME280;25088;43.238;23.110;2022-08-06T10:09:27;96241.88;;;42.46;20.46
39363;BME280;25088;43.238;23.110;2022-08-06T10:11:53;96238.50;;;42.97;20.58
39363;BME280;25088;43.238;23.110;2022-08-06T10:14:29;96236.66;;;42.54;20.62
39363;BME280;25088;43.238;23.110;2022-08-06T10:17:07;96224.06;;;42.42;20.93
39363;BME280;25088;43.238;23.110;2022-08-06T10:19:34;96210.63;;;42.30;20.72
39363;BME280;25088;43.238;23.110;2022-08-06T10:22:08;96228.31;;;43.05;19.53
39363;BME280;25088;43.238;23.110;2022-08-06T10:24:37;96229.59;;;43.14;19.33
39363;BME280;25088;43.238;23.110;2022-08-06T10:27:09;96229.81;;;43.89;19.11
39363;BME280;25088;43.238;23.110;2022-08-06T10:29:41;96227.28;;;43.73;19.28
39363;BME280;25088;43.238;23.110;2022-08-06T10:32:09;96228.41;;;43.66;19.26
39363;BME280;25088;43.238;23.110;2022-08-06T10:34:40;96229.97;;;43.76;19.39
39363;BME280;25088;43.238;23.110;2022-08-06T10:37:07;96229.09;;;43.52;20.08
39363;BME280;25088;43.238;23.110;2022-08-06T10:39:36;96235.16;;;43.35;19.53
39363;BME280;25088;43.238;23.110;2022-08-06T10:42:04;96231.00;;;43.46;19.66
39363;BME280;25088;43.238;23.110;2022-08-06T10:44:31;96224.72;;;43.75;19.86
39363;BME280;25088;43.238;23.110;2022-08-06T10:46:59;96223.13;;;43.74;19.27
39363;BME280;25088;43.238;23.110;2022-08-06T10:49:26;96208.13;;;43.70;19.35
39363;BME280;25088;43.238;23.110;2022-08-06T10:51:52;96219.00;;;44.50;18.71
39363;BME280;25088;43.238;23.110;2022-08-06T10:54:18;96211.09;;;43.94;19.18
39363;BME280;25088;43.238;23.110;2022-08-06T10:56:47;96211.56;;;43.13;19.60
39363;BME280;25088;43.238;23.110;2022-08-06T10:59:14;96210.25;;;42.87;20.20
39363;BME280;25088;43.238;23.110;2022-08-06T11:01:52;96202.69;;;42.43;20.05
39363;BME280;25088;43.238;23.110;2022-08-06T11:04:55;96210.53;;;42.61;19.69
39363;BME280;25088;43.238;23.110;2022-08-06T11:15:34;96214.03;;;42.16;20.16
39363;BME280;25088;43.238;23.110;2022-08-06T11:18:04;96209.56;;;41.74;20.46
39363;BME280;25088;43.238;23.110;2022-08-06T11:20:36;96202.75;;;43.35;19.11
39363;BME280;25088;43.238;23.110;2022-08-06T11:25:45;96203.53;;;42.71;19.49
39363;BME280;25088;43.238;23.110;2022-08-06T11:28:13;96200.13;;;41.21;20.64
39363;BME280;25088;43.238;23.110;2022-08-06T11:30:43;96217.84;;;41.28;20.80
39363;BME280;25088;43.238;23.110;2022-08-06T11:33:10;96214.72;;;40.19;21.87
39363;BME280;25088;43.238;23.110;2022-08-06T11:38:05;96206.25;;;41.10;20.67
39363;BME280;25088;43.238;23.110;2022-08-06T11:46:27;96197.00;;;42.98;19.46
39363;BME280;25088;43.238;23.110;2022-08-06T12:01:52;96191.25;;;44.38;18.27
39363;BME280;25088;43.238;23.110;2022-08-06T12:07:28;96181.09;;;44.28;17.08
39363;BME280;25088;43.238;23.110;2022-08-06T12:10:09;96182.69;;;43.07;18.10
39363;BME280;25088;43.238;23.110;2022-08-06T12:12:42;96168.16;;;41.44;20.29
39363;BME280;25088;43.238;23.110;2022-08-06T12:20:39;96183.13;;;38.75;22.43
39363;BME280;25088;43.238;23.110;2022-08-06T12:23:09;96179.84;;;37.42;23.98
39363;BME280;25088;43.238;23.110;2022-08-06T12:25:42;96172.78;;;38.94;23.31
39363;BME280;25088;43.238;23.110;2022-08-06T12:28:10;96171.38;;;39.82;22.32
39363;BME280;25088;43.238;23.110;2022-08-06T12:30:51;96158.69;;;41.35;20.70
39363;BME280;25088;43.238;23.110;2022-08-06T12:33:18;96156.34;;;42.04;20.12
39363;BME280;25088;43.238;23.110;2022-08-06T12:35:58;96164.59;;;43.34;19.59
39363;BME280;25088;43.238;23.110;2022-08-06T12:38:28;96162.38;;;43.48;19.18
39363;BME280;25088;43.238;23.110;2022-08-06T12:41:02;96153.44;;;43.27;19.10
39363;BME280;25088;43.238;23.110;2022-08-06T12:43:32;96142.09;;;42.96;19.19
39363;BME280;25088;43.238;23.110;2022-08-06T12:46:03;96152.94;;;43.38;19.59
39363;BME280;25088;43.238;23.110;2022-08-06T12:48:31;96149.94;;;41.60;20.72
39363;BME280;25088;43.238;23.110;2022-08-06T12:51:06;96150.56;;;40.20;22.31
39363;BME280;25088;43.238;23.110;2022-08-06T12:53:32;96153.47;;;38.85;23.37
39363;BME280;25088;43.238;23.110;2022-08-06T12:55:58;96162.88;;;38.53;23.80
39363;BME280;25088;43.238;23.110;2022-08-06T12:58:29;96162.28;;;38.29;23.92
39363;BME280;25088;43.238;23.110;2022-08-06T13:00:58;96157.31;;;38.00;24.66
39363;BME280;25088;43.238;23.110;2022-08-06T13:03:24;96153.91;;;37.89;24.70
39363;BME280;25088;43.238;23.110;2022-08-06T13:05:57;96139.72;;;37.33;24.64
39363;BME280;25088;43.238;23.110;2022-08-06T13:08:24;96150.78;;;37.67;25.07
39363;BME280;25088;43.238;23.110;2022-08-06T13:10:51;96150.16;;;37.60;24.44
39363;BME280;25088;43.238;23.110;2022-08-06T13:13:18;96157.59;;;37.54;24.69
39363;BME280;25088;43.238;23.110;2022-08-06T13:16:03;96156.72;;;37.57;25.18
39363;BME280;25088;43.238;23.110;2022-08-06T13:18:29;96157.78;;;37.26;24.66
39363;BME280;25088;43.238;23.110;2022-08-06T13:20:55;96143.19;;;37.05;24.98
39363;BME280;25088;43.238;23.110;2022-08-06T13:23:35;96136.34;;;38.85;23.78
39363;BME280;25088;43.238;23.110;2022-08-06T13:26:16;96141.41;;;38.48;23.06
39363;BME280;25088;43.238;23.110;2022-08-06T13:31:27;96137.34;;;38.78;23.62
39363;BME280;25088;43.238;23.110;2022-08-06T13:34:07;96139.34;;;38.94;23.49
39363;BME280;25088;43.238;23.110;2022-08-06T13:36:36;96131.66;;;39.20;21.96
39363;BME280;25088;43.238;23.110;2022-08-06T13:39:21;96132.28;;;41.09;21.62
39363;BME280;25088;43.238;23.110;2022-08-06T13:41:59;96120.56;;;41.78;20.31
39363;BME280;25088;43.238;23.110;2022-08-06T13:44:30;96125.22;;;42.52;20.16
39363;BME280;25088;43.238;23.110;2022-08-06T13:46:57;96129.19;;;42.92;19.78
39363;BME280;25088;43.238;23.110;2022-08-06T13:49:22;96119.31;;;42.74;19.80
39363;BME280;25088;43.238;23.110;2022-08-06T13:51:48;96111.19;;;43.09;19.44
39363;BME280;25088;43.238;23.110;2022-08-06T13:54:13;96118.50;;;43.20;19.09
39363;BME280;25088;43.238;23.110;2022-08-06T13:56:39;96120.28;;;42.90;20.10
39363;BME280;25088;43.238;23.110;2022-08-06T13:59:04;96115.06;;;42.11;19.35
39363;BME280;25088;43.238;23.110;2022-08-06T14:01:30;96097.28;;;42.25;19.94
39363;BME280;25088;43.238;23.110;2022-08-06T14:03:56;96114.91;;;42.05;19.80
39363;BME280;25088;43.238;23.110;2022-08-06T14:06:21;96119.53;;;41.63;20.53
39363;BME280;25088;43.238;23.110;2022-08-06T14:08:47;96119.16;;;40.98;20.71
39363;BME280;25088;43.238;23.110;2022-08-06T14:11:12;96129.09;;;40.37;21.54